createdAt,value
2022-12-17T00:02:06.645Z,0.63
2022-12-17T00:04:51.786Z,0.63
2022-12-17T00:07:37.208Z,0.64
2022-12-17T00:10:22.988Z,0.68
2022-12-17T00:13:09.209Z,0.68
2022-12-17T00:15:55.087Z,0.65
2022-12-17T00:18:41.565Z,0.62
2022-12-17T00:21:27.828Z,0.61
2022-12-17T00:24:12.796Z,0.61
2022-12-17T00:26:57.686Z,0.60
2022-12-17T00:29:44.233Z,0.53
2022-12-17T00:32:29.428Z,0.48
2022-12-17T00:35:14.625Z,0.52
2022-12-17T00:38:00.797Z,0.54
2022-12-17T00:40:46.679Z,0.55
2022-12-17T00:43:32.545Z,0.58
2022-12-17T00:46:20.139Z,0.60
2022-12-17T00:49:06.425Z,0.58
2022-12-17T00:51:52.954Z,0.56
2022-12-17T00:54:37.741Z,0.56
2022-12-17T00:57:23.161Z,0.47
2022-12-17T01:00:08.271Z,0.40
2022-12-17T01:02:56.568Z,0.33
2022-12-17T01:05:43.809Z,0.29
2022-12-17T01:08:30.040Z,0.26
2022-12-17T01:11:17.184Z,0.22
2022-12-17T01:14:02.206Z,0.20
2022-12-17T01:16:47.263Z,0.19
2022-12-17T01:19:33.825Z,0.24
2022-12-17T01:22:19.054Z,0.25
2022-12-17T01:25:04.143Z,0.25
2022-12-17T01:27:49.348Z,0.28
2022-12-17T01:30:34.805Z,0.25
2022-12-17T01:33:20.816Z,0.24
2022-12-17T01:36:07.356Z,0.30
2022-12-17T01:38:52.767Z,0.36
2022-12-17T01:41:38.240Z,0.40
2022-12-17T01:44:38.140Z,0.42
2022-12-17T01:47:23.564Z,0.38
2022-12-17T01:50:08.889Z,0.34
2022-12-17T01:52:55.541Z,0.33
2022-12-17T01:55:40.573Z,0.29
2022-12-17T01:58:25.828Z,0.28
2022-12-17T02:01:10.956Z,0.28
2022-12-17T02:03:56.313Z,0.31
2022-12-17T02:06:43.740Z,0.32
2022-12-17T02:09:33.915Z,0.36
2022-12-17T02:12:23.175Z,0.37
2022-12-17T02:15:17.095Z,0.38
2022-12-17T02:18:05.898Z,0.36
2022-12-17T02:20:53.168Z,0.34
2022-12-17T02:23:48.141Z,0.32
2022-12-17T02:26:39.920Z,0.32
2022-12-17T02:29:27.234Z,0.31
2022-12-17T02:32:13.130Z,0.32
2022-12-17T02:35:02.515Z,0.29
2022-12-17T02:37:48.578Z,0.25
2022-12-17T02:40:34.270Z,0.27
2022-12-17T02:43:20.118Z,0.30
2022-12-17T02:46:07.878Z,0.33
2022-12-17T02:48:53.360Z,0.33
2022-12-17T02:51:39.156Z,0.35
2022-12-17T02:54:24.528Z,0.36
2022-12-17T02:57:09.714Z,0.35
2022-12-17T02:59:54.639Z,0.34
2022-12-17T03:02:41.832Z,0.36
2022-12-17T03:05:44.550Z,0.37
2022-12-17T03:08:30.603Z,0.37
2022-12-17T03:11:15.782Z,0.38
2022-12-17T03:14:01.109Z,0.42
2022-12-17T03:16:46.402Z,0.45
2022-12-17T03:19:32.648Z,0.44
2022-12-17T03:22:17.689Z,0.43
2022-12-17T03:25:02.704Z,0.44
2022-12-17T03:27:47.733Z,0.44
2022-12-17T03:30:35.995Z,0.45
2022-12-17T03:33:23.695Z,0.43
2022-12-17T03:36:12.758Z,0.37
2022-12-17T03:38:58.183Z,0.36
2022-12-17T03:41:43.243Z,0.36
2022-12-17T03:44:28.251Z,0.39
2022-12-17T03:47:13.244Z,0.36
2022-12-17T03:49:58.390Z,0.32
2022-12-17T03:52:44.625Z,0.33
2022-12-17T03:55:29.803Z,0.34
2022-12-17T03:58:15.040Z,0.34
2022-12-17T04:01:00.170Z,0.35
2022-12-17T04:03:45.067Z,0.36
2022-12-17T04:06:30.261Z,0.36
2022-12-17T04:09:16.894Z,0.38
2022-12-17T04:12:02.189Z,0.37
2022-12-17T04:14:47.132Z,0.33
2022-12-17T04:17:32.367Z,0.30
2022-12-17T04:20:17.244Z,0.28
2022-12-17T04:23:02.525Z,0.26
2022-12-17T04:25:48.875Z,0.27
2022-12-17T04:28:33.831Z,0.18
2022-12-17T04:31:19.189Z,0.14
2022-12-17T04:34:04.474Z,0.07
2022-12-17T04:36:49.661Z,0.02
2022-12-17T04:39:34.642Z,0.01
2022-12-17T04:42:21.456Z,0.02
2022-12-17T04:45:06.791Z,-0.04
2022-12-17T04:47:51.633Z,-0.07
2022-12-17T04:50:37.001Z,-0.06
2022-12-17T04:53:22.860Z,-0.07
2022-12-17T04:56:08.034Z,-0.10
2022-12-17T04:58:54.195Z,-0.15
2022-12-17T05:01:39.503Z,-0.22
2022-12-17T05:04:24.745Z,-0.22
2022-12-17T05:07:09.936Z,-0.27
2022-12-17T05:09:54.827Z,-0.32
2022-12-17T05:12:39.696Z,-0.34
2022-12-17T05:15:26.480Z,-0.36
2022-12-17T05:18:11.506Z,-0.33
2022-12-17T05:20:56.731Z,-0.26
2022-12-17T05:23:41.920Z,-0.24
2022-12-17T05:26:31.904Z,-0.28
2022-12-17T05:29:17.091Z,-0.28
2022-12-17T05:32:03.590Z,-0.29
2022-12-17T05:34:48.855Z,-0.28
2022-12-17T05:37:33.922Z,-0.28
2022-12-17T05:40:18.966Z,-0.28
2022-12-17T05:43:12.463Z,-0.30
2022-12-17T05:45:57.180Z,-0.32
2022-12-17T05:48:43.451Z,-0.31
2022-12-17T05:51:28.434Z,-0.29
2022-12-17T05:54:13.322Z,-0.30
2022-12-17T05:56:58.607Z,-0.31
2022-12-17T05:59:43.675Z,-0.36
2022-12-17T06:02:33.556Z,-0.39
2022-12-17T06:05:19.899Z,-0.35
2022-12-17T06:08:04.857Z,-0.35
2022-12-17T06:10:50.150Z,-0.35
2022-12-17T06:13:35.617Z,-0.36
2022-12-17T06:16:20.836Z,-0.40
2022-12-17T06:19:06.125Z,-0.45
2022-12-17T06:21:52.493Z,-0.49
2022-12-17T06:24:41.374Z,-0.53
2022-12-17T06:27:30.590Z,-0.59
2022-12-17T06:30:18.686Z,-0.60
2022-12-17T06:33:04.440Z,-0.66
2022-12-17T06:35:49.520Z,-0.66
2022-12-17T06:38:35.985Z,-0.67
2022-12-17T06:41:21.569Z,-0.67
2022-12-17T06:44:06.780Z,-0.66
2022-12-17T06:46:51.833Z,-0.65
2022-12-17T06:49:37.150Z,-0.65
2022-12-17T06:52:22.371Z,-0.65
2022-12-17T06:55:08.600Z,-0.68
2022-12-17T06:57:55.361Z,-0.71
2022-12-17T07:00:42.322Z,-0.69
2022-12-17T07:03:29.014Z,-0.66
2022-12-17T07:06:14.319Z,-0.65
2022-12-17T07:08:59.700Z,-0.65
2022-12-17T07:11:46.138Z,-0.65
2022-12-17T07:14:31.347Z,-0.64
2022-12-17T07:17:16.488Z,-0.62
2022-12-17T07:20:01.826Z,-0.67
2022-12-17T07:22:47.056Z,-0.73
2022-12-17T07:25:32.171Z,-0.77
2022-12-17T07:28:18.295Z,-0.84
2022-12-17T07:31:03.572Z,-0.87
2022-12-17T07:33:48.810Z,-0.83
2022-12-17T07:36:34.027Z,-0.90
2022-12-17T07:39:19.363Z,-0.90
2022-12-17T07:42:04.340Z,-0.90
2022-12-17T07:44:50.665Z,-0.91
2022-12-17T07:47:35.574Z,-0.89
2022-12-17T07:50:20.645Z,-0.89
2022-12-17T07:53:05.577Z,-0.92
2022-12-17T07:55:50.445Z,-0.96
2022-12-17T07:58:35.529Z,-1.00
2022-12-17T08:01:21.993Z,-1.00
2022-12-17T08:04:07.352Z,-0.94
2022-12-17T08:06:58.384Z,-0.86
2022-12-17T08:09:45.925Z,-0.78
2022-12-17T08:12:30.981Z,-0.68
2022-12-17T08:15:16.127Z,-0.60
2022-12-17T08:18:02.772Z,-0.54
2022-12-17T08:20:48.188Z,-0.48
2022-12-17T08:23:33.593Z,-0.41
2022-12-17T08:26:18.885Z,-0.38
2022-12-17T08:29:04.112Z,-0.39
2022-12-17T08:31:49.383Z,-0.35
2022-12-17T08:34:35.520Z,-0.29
2022-12-17T08:37:20.741Z,-0.18
2022-12-17T08:40:05.623Z,-0.18
2022-12-17T08:42:50.744Z,-0.23
2022-12-17T08:45:35.984Z,-0.23
2022-12-17T08:48:21.677Z,-0.15
2022-12-17T08:51:07.952Z,-0.06
2022-12-17T08:53:53.067Z,-0.02
2022-12-17T08:56:38.091Z,-0.04
2022-12-17T08:59:22.999Z,0.00
2022-12-17T09:02:08.354Z,0.01
2022-12-17T09:04:53.677Z,-0.02
2022-12-17T09:07:40.160Z,-0.02
2022-12-17T09:10:25.627Z,0.02
2022-12-17T09:13:10.431Z,0.08
2022-12-17T09:15:55.708Z,0.11
2022-12-17T09:18:40.798Z,0.17
2022-12-17T09:21:27.103Z,0.20
2022-12-17T09:24:13.624Z,0.20
2022-12-17T09:26:58.517Z,0.21
2022-12-17T09:29:43.775Z,0.18
2022-12-17T09:32:28.962Z,0.18
2022-12-17T09:35:13.850Z,0.19
2022-12-17T09:37:59.218Z,0.25
2022-12-17T09:40:45.935Z,0.31
2022-12-17T09:43:37.032Z,0.36
2022-12-17T09:46:26.396Z,0.40
2022-12-17T09:49:16.268Z,0.41
2022-12-17T09:52:01.395Z,0.40
2022-12-17T09:54:48.660Z,0.38
2022-12-17T09:57:36.777Z,0.38
2022-12-17T10:00:22.422Z,0.41
2022-12-17T10:03:07.618Z,0.43
2022-12-17T10:05:53.381Z,0.47
2022-12-17T10:08:39.394Z,0.49
2022-12-17T10:11:34.318Z,0.56
2022-12-17T10:14:21.428Z,0.61
2022-12-17T10:17:11.744Z,0.65
2022-12-17T10:19:59.877Z,0.69
2022-12-17T10:22:44.638Z,0.75
2022-12-17T10:25:33.343Z,0.78
2022-12-17T10:28:30.358Z,0.79
2022-12-17T10:31:17.682Z,0.86
2022-12-17T10:34:03.499Z,0.97
2022-12-17T10:36:48.562Z,1.08
2022-12-17T10:39:35.069Z,1.02
2022-12-17T10:42:20.264Z,0.98
2022-12-17T10:45:05.293Z,0.99
2022-12-17T10:47:52.083Z,0.97
2022-12-17T10:50:38.189Z,0.96
2022-12-17T10:53:34.476Z,0.96
2022-12-17T10:56:20.287Z,0.99
2022-12-17T10:59:08.144Z,1.07
2022-12-17T11:01:54.002Z,1.15
2022-12-17T11:04:45.070Z,1.25
2022-12-17T11:07:37.669Z,1.30
2022-12-17T11:10:24.673Z,1.35
2022-12-17T11:13:11.473Z,1.42
2022-12-17T11:15:59.113Z,1.48
2022-12-17T11:18:47.962Z,1.50
2022-12-17T11:21:42.692Z,1.61
2022-12-17T11:24:32.136Z,1.74
2022-12-17T11:27:17.451Z,1.79
2022-12-17T11:30:02.402Z,1.82
2022-12-17T11:32:58.973Z,1.83
2022-12-17T11:35:47.468Z,1.76
2022-12-17T11:38:40.468Z,1.74
2022-12-17T11:41:37.651Z,1.70
2022-12-17T11:44:28.089Z,1.63
2022-12-17T11:47:19.109Z,1.59
2022-12-17T11:50:09.630Z,1.59
2022-12-17T11:53:00.029Z,1.51
2022-12-17T11:55:54.581Z,1.40
2022-12-17T11:58:41.649Z,1.24
2022-12-17T12:01:32.586Z,1.17
2022-12-17T12:04:25.017Z,1.05
2022-12-17T12:07:15.278Z,0.95
2022-12-17T12:10:03.909Z,0.92
2022-12-17T12:12:57.743Z,0.90
2022-12-17T12:15:46.217Z,0.93
2022-12-17T12:18:34.861Z,0.95
2022-12-17T12:21:34.482Z,1.02
2022-12-17T12:24:26.648Z,1.08
2022-12-17T12:27:21.151Z,1.08
2022-12-17T12:30:10.986Z,1.04
2022-12-17T12:33:05.495Z,0.99
2022-12-17T12:35:55.189Z,0.97
2022-12-17T12:38:46.341Z,1.00
2022-12-17T12:41:36.974Z,1.04
2022-12-17T12:44:26.841Z,1.08
2022-12-17T12:47:15.942Z,1.12
2022-12-17T12:50:03.972Z,1.12
2022-12-17T12:52:50.094Z,1.07
2022-12-17T12:55:34.936Z,1.09
2022-12-17T12:58:21.206Z,1.01
2022-12-17T13:01:13.723Z,0.90
2022-12-17T13:04:10.411Z,0.79
2022-12-17T13:06:41.695Z,0.74
2022-12-17T13:09:22.511Z,0.68
2022-12-17T13:11:49.718Z,0.67
2022-12-17T13:14:18.302Z,0.65
2022-12-17T13:16:50.488Z,0.60
2022-12-17T13:19:20.314Z,0.59
2022-12-17T13:21:47.044Z,0.56
2022-12-17T13:24:22.967Z,0.55
2022-12-17T13:26:49.471Z,0.56
2022-12-17T13:29:24.240Z,0.60
2022-12-17T13:32:02.906Z,0.65
2022-12-17T13:34:36.306Z,0.71
2022-12-17T13:37:07.627Z,0.72
2022-12-17T13:39:38.296Z,0.75
2022-12-17T13:42:05.116Z,0.76
2022-12-17T13:44:35.327Z,0.76
2022-12-17T13:47:01.816Z,0.67
2022-12-17T13:49:29.029Z,0.54
2022-12-17T13:52:09.640Z,0.43
2022-12-17T13:54:38.120Z,0.38
2022-12-17T13:57:08.768Z,0.37
2022-12-17T13:59:35.695Z,0.39
2022-12-17T14:02:02.330Z,0.40
2022-12-17T14:04:29.781Z,0.37
2022-12-17T14:06:58.986Z,0.36
2022-12-17T14:09:32.031Z,0.35
2022-12-17T14:12:17.228Z,0.35
2022-12-17T14:14:46.780Z,0.37
2022-12-17T14:17:17.941Z,0.31
2022-12-17T14:19:44.682Z,0.25
2022-12-17T14:22:15.400Z,0.20
2022-12-17T14:24:43.353Z,0.16
2022-12-17T14:27:21.853Z,0.10
2022-12-17T14:29:48.340Z,0.08
2022-12-17T14:32:21.756Z,0.09
2022-12-17T14:34:48.335Z,0.11
2022-12-17T14:37:16.970Z,0.13
2022-12-17T14:39:45.476Z,0.09
2022-12-17T14:42:29.198Z,0.06
2022-12-17T14:44:57.653Z,0.00
2022-12-17T14:47:25.413Z,-0.07
2022-12-17T14:50:09.881Z,-0.12
2022-12-17T14:52:38.291Z,-0.22
2022-12-17T14:55:26.713Z,-0.33
2022-12-17T14:57:54.053Z,-0.45
2022-12-17T15:00:21.170Z,-0.55
2022-12-17T15:02:51.218Z,-0.64
2022-12-17T15:05:18.166Z,-0.72
2022-12-17T15:07:44.744Z,-0.83
2022-12-17T15:10:12.194Z,-0.93
2022-12-17T15:12:40.501Z,-1.02
2022-12-17T15:15:07.636Z,-1.08
2022-12-17T15:17:34.486Z,-1.14
2022-12-17T15:20:01.097Z,-1.16
2022-12-17T15:22:27.636Z,-1.22
2022-12-17T15:24:54.112Z,-1.29
2022-12-17T15:27:20.585Z,-1.36
2022-12-17T15:29:48.509Z,-1.42
2022-12-17T15:32:17.969Z,-1.44
2022-12-17T15:34:44.867Z,-1.46
2022-12-17T15:37:11.414Z,-1.49
2022-12-17T15:39:37.953Z,-1.47
2022-12-17T15:42:23.147Z,-1.46
2022-12-17T15:44:50.984Z,-1.39
2022-12-17T15:47:17.857Z,-1.39
2022-12-17T15:49:44.760Z,-1.41
2022-12-17T15:52:14.862Z,-1.41
2022-12-17T15:54:41.589Z,-1.39
2022-12-17T15:57:08.215Z,-1.37
2022-12-17T15:59:34.791Z,-1.35
2022-12-17T16:02:02.837Z,-1.37
2022-12-17T16:04:29.722Z,-1.43
2022-12-17T16:06:56.272Z,-1.47
2022-12-17T16:09:25.922Z,-1.48
2022-12-17T16:11:53.719Z,-1.47
2022-12-17T16:14:20.781Z,-1.43
2022-12-17T16:16:47.291Z,-1.40
2022-12-17T16:19:15.145Z,-1.38
2022-12-17T16:21:46.491Z,-1.38
2022-12-17T16:24:13.352Z,-1.41
2022-12-17T16:26:39.929Z,-1.41
2022-12-17T16:29:06.676Z,-1.44
2022-12-17T16:31:33.595Z,-1.52
2022-12-17T16:34:00.164Z,-1.60
2022-12-17T16:36:28.020Z,-1.60
2022-12-17T16:38:54.837Z,-1.58
2022-12-17T16:41:21.765Z,-1.54
2022-12-17T16:43:48.583Z,-1.53
2022-12-17T16:46:23.442Z,-1.51
2022-12-17T16:48:49.977Z,-1.45
2022-12-17T16:51:21.090Z,-1.38
2022-12-17T16:53:53.811Z,-1.37
2022-12-17T16:56:21.619Z,-1.34
2022-12-17T16:58:48.503Z,-1.25
2022-12-17T17:01:18.269Z,-1.17
2022-12-17T17:03:45.147Z,-1.10
2022-12-17T17:06:13.012Z,-1.04
2022-12-17T17:08:40.184Z,-1.00
2022-12-17T17:11:11.215Z,-0.97
2022-12-17T17:13:38.210Z,-0.96
2022-12-17T17:16:05.403Z,-0.95
2022-12-17T17:18:32.172Z,-0.97
2022-12-17T17:21:12.964Z,-0.97
2022-12-17T17:23:39.529Z,-0.93
2022-12-17T17:26:06.133Z,-0.92
2022-12-17T17:28:34.511Z,-0.86
2022-12-17T17:31:01.687Z,-0.84
2022-12-17T17:33:28.973Z,-0.81
2022-12-17T17:35:58.494Z,-0.80
2022-12-17T17:38:28.894Z,-0.81
2022-12-17T17:40:56.173Z,-0.81
2022-12-17T17:43:22.641Z,-0.80
2022-12-17T17:45:50.504Z,-0.79
2022-12-17T17:48:17.071Z,-0.81
2022-12-17T17:50:43.804Z,-0.87
2022-12-17T17:53:10.341Z,-0.93
2022-12-17T17:55:36.873Z,-0.99
2022-12-17T17:58:03.375Z,-1.02
2022-12-17T18:00:31.295Z,-1.09
2022-12-17T18:02:59.334Z,-1.20
2022-12-17T18:05:26.088Z,-1.24
2022-12-17T18:07:52.810Z,-1.22
2022-12-17T18:10:19.327Z,-1.18
2022-12-17T18:13:04.957Z,-1.13
2022-12-17T18:15:31.520Z,-1.09
2022-12-17T18:17:59.413Z,-1.06
2022-12-17T18:20:25.895Z,-1.06
2022-12-17T18:22:52.459Z,-1.01
2022-12-17T18:25:19.712Z,-0.96
2022-12-17T18:27:46.189Z,-0.92
2022-12-17T18:30:13.531Z,-0.89
2022-12-17T18:32:40.869Z,-0.85
2022-12-17T18:35:09.240Z,-0.80
2022-12-17T18:37:36.054Z,-0.78
2022-12-17T18:40:02.551Z,-0.81
2022-12-17T18:42:48.150Z,-0.84
2022-12-17T18:45:14.639Z,-0.86
2022-12-17T18:47:42.491Z,-0.89
2022-12-17T18:50:10.992Z,-0.92
2022-12-17T18:52:37.575Z,-0.99
2022-12-17T18:55:04.415Z,-1.08
2022-12-17T18:57:30.950Z,-1.15
2022-12-17T18:59:57.495Z,-1.22
2022-12-17T19:02:24.136Z,-1.25
2022-12-17T19:04:50.761Z,-1.25
2022-12-17T19:07:18.668Z,-1.27
2022-12-17T19:09:45.190Z,-1.30
2022-12-17T19:12:11.758Z,-1.30
2022-12-17T19:14:38.253Z,-1.31
2022-12-17T19:17:05.959Z,-1.27
2022-12-17T19:19:32.964Z,-1.23
2022-12-17T19:22:00.305Z,-1.18
2022-12-17T19:24:28.327Z,-1.13
2022-12-17T19:26:54.946Z,-1.06
2022-12-17T19:29:21.434Z,-1.03
2022-12-17T19:31:48.125Z,-0.99
2022-12-17T19:34:15.558Z,-0.95
2022-12-17T19:36:42.916Z,-0.93
2022-12-17T19:39:11.693Z,-0.92
2022-12-17T19:41:39.878Z,-0.94
2022-12-17T19:44:07.450Z,-0.95
2022-12-17T19:46:34.796Z,-0.96
2022-12-17T19:49:01.839Z,-0.98
2022-12-17T19:51:29.705Z,-0.98
2022-12-17T19:53:56.269Z,-0.98
2022-12-17T19:56:24.629Z,-1.00
2022-12-17T19:58:53.799Z,-1.08
2022-12-17T20:01:21.674Z,-1.15
2022-12-17T20:03:48.371Z,-1.18
2022-12-17T20:06:16.295Z,-1.24
2022-12-17T20:08:44.046Z,-1.28
2022-12-17T20:11:30.132Z,-1.32
2022-12-17T20:13:58.825Z,-1.34
2022-12-17T20:16:25.736Z,-1.33
2022-12-17T20:18:52.317Z,-1.29
2022-12-17T20:21:19.300Z,-1.26
2022-12-17T20:23:46.896Z,-1.22
2022-12-17T20:26:13.385Z,-1.17
2022-12-17T20:28:40.246Z,-1.14
2022-12-17T20:31:08.850Z,-1.11
2022-12-17T20:33:35.328Z,-1.11
2022-12-17T20:36:03.356Z,-1.13
2022-12-17T20:38:29.833Z,-1.14
2022-12-17T20:40:56.318Z,-1.11
2022-12-17T20:43:22.847Z,-1.09
2022-12-17T20:45:50.247Z,-1.04
2022-12-17T20:48:18.209Z,-1.01
2022-12-17T20:50:44.798Z,-1.00
2022-12-17T20:53:11.279Z,-0.98
2022-12-17T20:55:37.844Z,-0.97
2022-12-17T20:58:04.307Z,-0.94
2022-12-17T21:00:30.815Z,-0.92
2022-12-17T21:02:57.357Z,-0.91
2022-12-17T21:05:25.344Z,-0.90
2022-12-17T21:07:52.396Z,-0.89
2022-12-17T21:10:19.273Z,-0.92
2022-12-17T21:13:04.465Z,-0.92
2022-12-17T21:15:30.999Z,-0.91
2022-12-17T21:17:57.508Z,-0.91
2022-12-17T21:20:25.404Z,-0.94
2022-12-17T21:22:52.263Z,-1.03
2022-12-17T21:25:19.186Z,-1.07
2022-12-17T21:27:45.672Z,-1.14
2022-12-17T21:30:13.377Z,-1.25
2022-12-17T21:32:40.175Z,-1.33
2022-12-17T21:35:07.140Z,-1.35
2022-12-17T21:37:34.981Z,-1.36
2022-12-17T21:40:02.085Z,-1.36
2022-12-17T21:42:47.454Z,-1.35
2022-12-17T21:45:14.754Z,-1.37
2022-12-17T21:47:41.459Z,-1.39
2022-12-17T21:50:08.241Z,-1.41
2022-12-17T21:52:36.076Z,-1.47
2022-12-17T21:55:02.706Z,-1.50
2022-12-17T21:57:30.201Z,-1.53
2022-12-17T21:59:56.733Z,-1.55
2022-12-17T22:02:23.287Z,-1.53
2022-12-17T22:04:50.029Z,-1.50
2022-12-17T22:07:24.233Z,-1.47
2022-12-17T22:10:18.271Z,-1.48
2022-12-17T22:13:04.279Z,-1.55
2022-12-17T22:15:41.508Z,-1.56
2022-12-17T22:18:14.779Z,-1.56
2022-12-17T22:20:41.265Z,-1.55
2022-12-17T22:23:07.780Z,-1.48
2022-12-17T22:25:38.077Z,-1.44
2022-12-17T22:28:05.150Z,-1.40
2022-12-17T22:30:50.083Z,-1.38
2022-12-17T22:33:26.330Z,-1.40
2022-12-17T22:37:15.118Z,-1.36
2022-12-17T22:41:23.241Z,-1.31
2022-12-17T22:44:31.625Z,-1.36
2022-12-17T22:44:54.524Z,-1.40
2022-12-17T22:47:22.676Z,-1.40
2022-12-17T22:49:49.198Z,-1.40
2022-12-17T22:52:17.497Z,-1.38
2022-12-17T22:54:45.503Z,-1.38
2022-12-17T22:57:36.660Z,-1.35
2022-12-17T23:00:00.277Z,-1.35
2022-12-17T23:02:26.787Z,-1.35
2022-12-17T23:04:53.421Z,-1.41
2022-12-17T23:07:19.904Z,-1.44
2022-12-17T23:09:46.468Z,-1.41
2022-12-17T23:12:46.620Z,-1.40
2022-12-17T23:15:13.131Z,-1.39
2022-12-17T23:17:39.672Z,-1.36
2022-12-17T23:20:06.472Z,-1.35
2022-12-17T23:22:33.102Z,-1.35
2022-12-17T23:24:59.573Z,-1.34
2022-12-17T23:27:27.446Z,-1.32
2022-12-17T23:29:54.004Z,-1.32
2022-12-17T23:32:20.496Z,-1.31
2022-12-17T23:34:47.049Z,-1.30
2022-12-17T23:37:13.522Z,-1.36
2022-12-17T23:39:40.030Z,-1.44
2022-12-17T23:42:06.671Z,-1.44
2022-12-17T23:44:34.519Z,-1.43
2022-12-17T23:47:01.125Z,-1.45
2022-12-17T23:49:27.729Z,-1.47
2022-12-17T23:51:54.233Z,-1.50
2022-12-17T23:54:20.727Z,-1.51
2022-12-17T23:56:47.280Z,-1.50
2022-12-17T23:59:13.865Z,-1.57
